sensor_id;sensor_type;location;lat;lon;timestamp;P1;durP1;ratioP1;P2;durP2;ratioP2
35592;SDS011;64447;52.140;5.602;2023-02-28T00:01:21;6.88;;;3.85;;
35592;SDS011;64447;52.140;5.602;2023-02-28T00:03:47;4.95;;;3.33;;
35592;SDS011;64447;52.140;5.602;2023-02-28T00:06:13;5.35;;;3.88;;
35592;SDS011;64447;52.140;5.602;2023-02-28T00:08:39;7.00;;;3.90;;
35592;SDS011;64447;52.140;5.602;2023-02-28T00:11:05;5.57;;;3.60;;
35592;SDS011;64447;52.140;5.602;2023-02-28T00:13:36;6.93;;;3.95;;
35592;SDS011;64447;52.140;5.602;2023-02-28T00:16:08;6.68;;;3.85;;
35592;SDS011;64447;52.140;5.602;2023-02-28T00:18:36;6.28;;;3.45;;
35592;SDS011;64447;52.140;5.602;2023-02-28T00:21:03;6.78;;;3.50;;
35592;SDS011;64447;52.140;5.602;2023-02-28T00:23:29;5.70;;;3.25;;
35592;SDS011;64447;52.140;5.602;2023-02-28T00:25:55;6.60;;;3.88;;
35592;SDS011;64447;52.140;5.602;2023-02-28T00:28:20;4.93;;;3.53;;
35592;SDS011;64447;52.140;5.602;2023-02-28T00:30:46;6.38;;;3.75;;
35592;SDS011;64447;52.140;5.602;2023-02-28T00:33:12;8.93;;;3.70;;
35592;SDS011;64447;52.140;5.602;2023-02-28T00:35:37;6.70;;;3.50;;
35592;SDS011;64447;52.140;5.602;2023-02-28T00:41:25;8.00;;;3.83;;
35592;SDS011;64447;52.140;5.602;2023-02-28T00:43:51;6.00;;;4.28;;
35592;SDS011;64447;52.140;5.602;2023-02-28T00:46:16;7.13;;;4.03;;
35592;SDS011;64447;52.140;5.602;2023-02-28T00:48:42;5.88;;;3.88;;
35592;SDS011;64447;52.140;5.602;2023-02-28T00:51:08;5.97;;;3.58;;
35592;SDS011;64447;52.140;5.602;2023-02-28T00:56:56;4.43;;;3.50;;
35592;SDS011;64447;52.140;5.602;2023-02-28T00:59:21;5.43;;;3.20;;
35592;SDS011;64447;52.140;5.602;2023-02-28T01:01:47;8.20;;;3.60;;
35592;SDS011;64447;52.140;5.602;2023-02-28T01:04:13;10.00;;;4.10;;
35592;SDS011;64447;52.140;5.602;2023-02-28T01:06:39;6.97;;;3.85;;
35592;SDS011;64447;52.140;5.602;2023-02-28T01:09:05;5.75;;;3.70;;
35592;SDS011;64447;52.140;5.602;2023-02-28T01:11:32;6.22;;;4.00;;
35592;SDS011;64447;52.140;5.602;2023-02-28T01:13:59;7.10;;;3.50;;
35592;SDS011;64447;52.140;5.602;2023-02-28T01:16:25;8.15;;;4.30;;
35592;SDS011;64447;52.140;5.602;2023-02-28T01:18:50;6.38;;;3.53;;
35592;SDS011;64447;52.140;5.602;2023-02-28T01:21:17;5.95;;;3.63;;
35592;SDS011;64447;52.140;5.602;2023-02-28T01:27:06;7.75;;;4.53;;
35592;SDS011;64447;52.140;5.602;2023-02-28T01:29:31;9.35;;;3.67;;
35592;SDS011;64447;52.140;5.602;2023-02-28T01:31:57;4.90;;;3.67;;
35592;SDS011;64447;52.140;5.602;2023-02-28T01:34:24;6.25;;;3.92;;
35592;SDS011;64447;52.140;5.602;2023-02-28T01:36:49;8.10;;;3.78;;
35592;SDS011;64447;52.140;5.602;2023-02-28T01:39:15;4.50;;;3.50;;
35592;SDS011;64447;52.140;5.602;2023-02-28T01:41:41;6.25;;;4.05;;
35592;SDS011;64447;52.140;5.602;2023-02-28T01:46:52;5.32;;;3.22;;
35592;SDS011;64447;52.140;5.602;2023-02-28T01:49:17;6.85;;;3.97;;
35592;SDS011;64447;52.140;5.602;2023-02-28T01:51:45;6.38;;;3.80;;
35592;SDS011;64447;52.140;5.602;2023-02-28T01:54:18;7.82;;;3.60;;
35592;SDS011;64447;52.140;5.602;2023-02-28T01:56:48;5.45;;;3.85;;
35592;SDS011;64447;52.140;5.602;2023-02-28T01:59:23;5.20;;;3.78;;
35592;SDS011;64447;52.140;5.602;2023-02-28T02:01:57;7.55;;;3.88;;
35592;SDS011;64447;52.140;5.602;2023-02-28T02:04:23;8.73;;;3.97;;
35592;SDS011;64447;52.140;5.602;2023-02-28T02:06:52;6.88;;;3.58;;
35592;SDS011;64447;52.140;5.602;2023-02-28T02:09:18;5.90;;;3.33;;
35592;SDS011;64447;52.140;5.602;2023-02-28T02:11:43;6.10;;;4.20;;
35592;SDS011;64447;52.140;5.602;2023-02-28T02:20:11;7.85;;;4.40;;
35592;SDS011;64447;52.140;5.602;2023-02-28T02:31:22;6.93;;;3.95;;
35592;SDS011;64447;52.140;5.602;2023-02-28T02:36:35;5.38;;;4.10;;
35592;SDS011;64447;52.140;5.602;2023-02-28T02:39:18;4.47;;;3.53;;
35592;SDS011;64447;52.140;5.602;2023-02-28T02:41:53;6.70;;;4.53;;
35592;SDS011;64447;52.140;5.602;2023-02-28T02:44:21;5.25;;;3.97;;
35592;SDS011;64447;52.140;5.602;2023-02-28T02:47:14;5.85;;;4.03;;
35592;SDS011;64447;52.140;5.602;2023-02-28T02:49:44;7.40;;;4.10;;
35592;SDS011;64447;52.140;5.602;2023-02-28T02:55:38;5.03;;;3.70;;
35592;SDS011;64447;52.140;5.602;2023-02-28T02:58:09;7.43;;;3.75;;
35592;SDS011;64447;52.140;5.602;2023-02-28T03:00:41;9.35;;;4.00;;
35592;SDS011;64447;52.140;5.602;2023-02-28T03:03:09;6.43;;;4.07;;
35592;SDS011;64447;52.140;5.602;2023-02-28T03:05:47;8.15;;;5.10;;
35592;SDS011;64447;52.140;5.602;2023-02-28T03:11:36;4.90;;;3.55;;
35592;SDS011;64447;52.140;5.602;2023-02-28T03:19:41;7.65;;;4.53;;
35592;SDS011;64447;52.140;5.602;2023-02-28T03:25:13;8.05;;;4.50;;
35592;SDS011;64447;52.140;5.602;2023-02-28T03:27:54;7.00;;;4.28;;
35592;SDS011;64447;52.140;5.602;2023-02-28T03:30:25;6.50;;;4.45;;
35592;SDS011;64447;52.140;5.602;2023-02-28T03:33:05;6.30;;;4.68;;
35592;SDS011;64447;52.140;5.602;2023-02-28T03:35:48;7.75;;;4.72;;
35592;SDS011;64447;52.140;5.602;2023-02-28T03:38:29;6.88;;;4.68;;
35592;SDS011;64447;52.140;5.602;2023-02-28T03:41:05;10.15;;;4.80;;
35592;SDS011;64447;52.140;5.602;2023-02-28T03:43:38;6.95;;;4.70;;
35592;SDS011;64447;52.140;5.602;2023-02-28T03:46:09;4.90;;;4.13;;
35592;SDS011;64447;52.140;5.602;2023-02-28T03:51:12;7.18;;;4.43;;
35592;SDS011;64447;52.140;5.602;2023-02-28T03:53:43;7.18;;;4.88;;
35592;SDS011;64447;52.140;5.602;2023-02-28T03:56:25;6.05;;;5.25;;
35592;SDS011;64447;52.140;5.602;2023-02-28T04:01:49;8.77;;;5.38;;
35592;SDS011;64447;52.140;5.602;2023-02-28T04:04:16;10.55;;;5.18;;
35592;SDS011;64447;52.140;5.602;2023-02-28T04:06:43;7.88;;;4.70;;
35592;SDS011;64447;52.140;5.602;2023-02-28T04:09:10;6.95;;;4.55;;
35592;SDS011;64447;52.140;5.602;2023-02-28T04:14:05;10.75;;;4.90;;
35592;SDS011;64447;52.140;5.602;2023-02-28T04:16:33;5.72;;;4.63;;
35592;SDS011;64447;52.140;5.602;2023-02-28T04:19:02;7.90;;;3.88;;
35592;SDS011;64447;52.140;5.602;2023-02-28T04:21:40;5.45;;;4.03;;
35592;SDS011;64447;52.140;5.602;2023-02-28T04:24:08;6.50;;;4.63;;
35592;SDS011;64447;52.140;5.602;2023-02-28T04:26:39;7.43;;;4.50;;
35592;SDS011;64447;52.140;5.602;2023-02-28T04:29:06;5.90;;;4.07;;
35592;SDS011;64447;52.140;5.602;2023-02-28T04:31:32;5.07;;;3.47;;
35592;SDS011;64447;52.140;5.602;2023-02-28T04:33:59;4.20;;;3.30;;
35592;SDS011;64447;52.140;5.602;2023-02-28T04:36:25;6.88;;;4.45;;
35592;SDS011;64447;52.140;5.602;2023-02-28T04:38:51;6.35;;;3.58;;
35592;SDS011;64447;52.140;5.602;2023-02-28T04:41:17;5.57;;;3.95;;
35592;SDS011;64447;52.140;5.602;2023-02-28T04:43:42;8.57;;;4.18;;
35592;SDS011;64447;52.140;5.602;2023-02-28T04:46:08;5.43;;;3.90;;
35592;SDS011;64447;52.140;5.602;2023-02-28T04:48:35;5.68;;;3.47;;
35592;SDS011;64447;52.140;5.602;2023-02-28T04:51:03;5.53;;;4.43;;
35592;SDS011;64447;52.140;5.602;2023-02-28T04:53:30;6.28;;;3.88;;
35592;SDS011;64447;52.140;5.602;2023-02-28T04:55:56;5.78;;;3.70;;
35592;SDS011;64447;52.140;5.602;2023-02-28T04:58:23;7.28;;;3.65;;
35592;SDS011;64447;52.140;5.602;2023-02-28T05:00:52;5.78;;;3.83;;
35592;SDS011;64447;52.140;5.602;2023-02-28T05:03:19;7.40;;;4.05;;
35592;SDS011;64447;52.140;5.602;2023-02-28T05:05:48;5.13;;;4.18;;
35592;SDS011;64447;52.140;5.602;2023-02-28T05:08:14;6.63;;;4.25;;
35592;SDS011;64447;52.140;5.602;2023-02-28T05:10:39;5.57;;;3.58;;
35592;SDS011;64447;52.140;5.602;2023-02-28T05:13:05;5.75;;;4.20;;
35592;SDS011;64447;52.140;5.602;2023-02-28T05:15:30;4.88;;;3.80;;
35592;SDS011;64447;52.140;5.602;2023-02-28T05:17:56;4.63;;;3.80;;
35592;SDS011;64447;52.140;5.602;2023-02-28T05:20:22;5.68;;;4.28;;
35592;SDS011;64447;52.140;5.602;2023-02-28T05:22:47;5.20;;;3.85;;
35592;SDS011;64447;52.140;5.602;2023-02-28T05:25:18;6.05;;;3.30;;
35592;SDS011;64447;52.140;5.602;2023-02-28T05:27:46;4.03;;;3.60;;
35592;SDS011;64447;52.140;5.602;2023-02-28T05:30:12;7.70;;;4.00;;
35592;SDS011;64447;52.140;5.602;2023-02-28T05:32:38;5.97;;;3.88;;
35592;SDS011;64447;52.140;5.602;2023-02-28T05:35:07;4.63;;;3.72;;
35592;SDS011;64447;52.140;5.602;2023-02-28T05:37:34;6.13;;;3.47;;
35592;SDS011;64447;52.140;5.602;2023-02-28T05:43:22;6.90;;;3.50;;
35592;SDS011;64447;52.140;5.602;2023-02-28T05:45:47;4.65;;;3.90;;
35592;SDS011;64447;52.140;5.602;2023-02-28T05:48:13;5.43;;;3.28;;
35592;SDS011;64447;52.140;5.602;2023-02-28T05:50:39;5.85;;;3.55;;
35592;SDS011;64447;52.140;5.602;2023-02-28T05:53:04;7.63;;;3.75;;
35592;SDS011;64447;52.140;5.602;2023-02-28T05:55:30;4.00;;;3.38;;
35592;SDS011;64447;52.140;5.602;2023-02-28T05:57:56;4.15;;;3.40;;
35592;SDS011;64447;52.140;5.602;2023-02-28T06:00:21;6.43;;;3.75;;
35592;SDS011;64447;52.140;5.602;2023-02-28T06:02:47;6.30;;;3.70;;
35592;SDS011;64447;52.140;5.602;2023-02-28T06:05:14;5.18;;;3.65;;
35592;SDS011;64447;52.140;5.602;2023-02-28T06:07:42;4.13;;;3.63;;
35592;SDS011;64447;52.140;5.602;2023-02-28T06:13:30;4.60;;;3.38;;
35592;SDS011;64447;52.140;5.602;2023-02-28T06:15:55;5.55;;;4.07;;
35592;SDS011;64447;52.140;5.602;2023-02-28T06:18:21;4.30;;;3.58;;
35592;SDS011;64447;52.140;5.602;2023-02-28T06:20:53;7.80;;;4.38;;
35592;SDS011;64447;52.140;5.602;2023-02-28T06:23:19;4.18;;;3.58;;
35592;SDS011;64447;52.140;5.602;2023-02-28T06:25:46;6.57;;;4.25;;
35592;SDS011;64447;52.140;5.602;2023-02-28T06:28:11;6.22;;;4.32;;
35592;SDS011;64447;52.140;5.602;2023-02-28T06:30:37;5.63;;;3.80;;
35592;SDS011;64447;52.140;5.602;2023-02-28T06:33:03;5.07;;;3.80;;
35592;SDS011;64447;52.140;5.602;2023-02-28T06:35:29;8.43;;;4.50;;
35592;SDS011;64447;52.140;5.602;2023-02-28T06:37:54;5.53;;;4.00;;
35592;SDS011;64447;52.140;5.602;2023-02-28T06:43:42;6.82;;;4.22;;
35592;SDS011;64447;52.140;5.602;2023-02-28T06:46:09;4.88;;;4.35;;
35592;SDS011;64447;52.140;5.602;2023-02-28T06:48:36;7.57;;;4.60;;
35592;SDS011;64447;52.140;5.602;2023-02-28T06:51:06;6.85;;;4.90;;
35592;SDS011;64447;52.140;5.602;2023-02-28T06:53:36;4.43;;;3.85;;
35592;SDS011;64447;52.140;5.602;2023-02-28T06:56:04;6.00;;;4.10;;
35592;SDS011;64447;52.140;5.602;2023-02-28T06:58:31;5.60;;;3.70;;
35592;SDS011;64447;52.140;5.602;2023-02-28T07:00:56;6.43;;;4.60;;
35592;SDS011;64447;52.140;5.602;2023-02-28T07:03:22;4.85;;;3.80;;
35592;SDS011;64447;52.140;5.602;2023-02-28T07:05:48;4.70;;;4.20;;
35592;SDS011;64447;52.140;5.602;2023-02-28T07:08:13;5.13;;;4.20;;
35592;SDS011;64447;52.140;5.602;2023-02-28T07:10:39;5.32;;;4.10;;
35592;SDS011;64447;52.140;5.602;2023-02-28T07:13:06;6.10;;;4.18;;
35592;SDS011;64447;52.140;5.602;2023-02-28T07:15:33;8.15;;;4.95;;
35592;SDS011;64447;52.140;5.602;2023-02-28T07:18:00;10.05;;;4.80;;
35592;SDS011;64447;52.140;5.602;2023-02-28T07:20:25;6.40;;;4.55;;
35592;SDS011;64447;52.140;5.602;2023-02-28T07:22:51;7.70;;;4.78;;
35592;SDS011;64447;52.140;5.602;2023-02-28T07:28:45;7.75;;;4.28;;
35592;SDS011;64447;52.140;5.602;2023-02-28T07:31:12;8.30;;;5.20;;
35592;SDS011;64447;52.140;5.602;2023-02-28T07:33:42;8.20;;;4.95;;
35592;SDS011;64447;52.140;5.602;2023-02-28T07:36:09;9.93;;;4.70;;
35592;SDS011;64447;52.140;5.602;2023-02-28T07:38:40;7.55;;;5.20;;
35592;SDS011;64447;52.140;5.602;2023-02-28T07:41:07;7.40;;;4.35;;
35592;SDS011;64447;52.140;5.602;2023-02-28T07:43:33;6.78;;;5.00;;
35592;SDS011;64447;52.140;5.602;2023-02-28T07:46:07;7.75;;;5.18;;
35592;SDS011;64447;52.140;5.602;2023-02-28T07:48:35;6.65;;;5.00;;
35592;SDS011;64447;52.140;5.602;2023-02-28T07:51:01;7.70;;;5.40;;
35592;SDS011;64447;52.140;5.602;2023-02-28T07:53:27;9.75;;;5.25;;
35592;SDS011;64447;52.140;5.602;2023-02-28T07:55:56;9.18;;;5.18;;
35592;SDS011;64447;52.140;5.602;2023-02-28T07:58:23;11.35;;;6.18;;
35592;SDS011;64447;52.140;5.602;2023-02-28T08:00:50;8.90;;;5.65;;
35592;SDS011;64447;52.140;5.602;2023-02-28T08:03:16;7.32;;;5.40;;
35592;SDS011;64447;52.140;5.602;2023-02-28T08:05:43;7.13;;;5.55;;
35592;SDS011;64447;52.140;5.602;2023-02-28T08:08:09;6.30;;;5.18;;
35592;SDS011;64447;52.140;5.602;2023-02-28T08:13:56;6.40;;;5.10;;
35592;SDS011;64447;52.140;5.602;2023-02-28T08:16:22;7.75;;;5.00;;
35592;SDS011;64447;52.140;5.602;2023-02-28T08:18:49;9.90;;;5.93;;
35592;SDS011;64447;52.140;5.602;2023-02-28T08:21:16;6.72;;;5.78;;
35592;SDS011;64447;52.140;5.602;2023-02-28T08:23:42;6.70;;;5.22;;
35592;SDS011;64447;52.140;5.602;2023-02-28T08:26:07;8.68;;;5.25;;
35592;SDS011;64447;52.140;5.602;2023-02-28T08:28:33;10.98;;;6.00;;
35592;SDS011;64447;52.140;5.602;2023-02-28T08:30:59;12.10;;;5.35;;
35592;SDS011;64447;52.140;5.602;2023-02-28T08:33:24;7.38;;;5.40;;
35592;SDS011;64447;52.140;5.602;2023-02-28T08:35:52;6.57;;;5.60;;
35592;SDS011;64447;52.140;5.602;2023-02-28T08:38:19;9.77;;;6.63;;
35592;SDS011;64447;52.140;5.602;2023-02-28T08:44:06;7.10;;;4.93;;
35592;SDS011;64447;52.140;5.602;2023-02-28T08:46:32;7.03;;;5.05;;
35592;SDS011;64447;52.140;5.602;2023-02-28T08:48:57;5.32;;;4.55;;
35592;SDS011;64447;52.140;5.602;2023-02-28T08:51:25;7.68;;;4.47;;
35592;SDS011;64447;52.140;5.602;2023-02-28T08:53:52;3.88;;;2.60;;
35592;SDS011;64447;52.140;5.602;2023-02-28T08:56:23;4.55;;;2.95;;
35592;SDS011;64447;52.140;5.602;2023-02-28T08:58:49;3.70;;;3.17;;
35592;SDS011;64447;52.140;5.602;2023-02-28T09:03:42;6.30;;;2.22;;
35592;SDS011;64447;52.140;5.602;2023-02-28T09:06:09;2.72;;;2.00;;
35592;SDS011;64447;52.140;5.602;2023-02-28T09:08:36;3.10;;;2.47;;
35592;SDS011;64447;52.140;5.602;2023-02-28T09:14:24;3.63;;;2.28;;
35592;SDS011;64447;52.140;5.602;2023-02-28T09:16:49;2.17;;;1.70;;
35592;SDS011;64447;52.140;5.602;2023-02-28T09:19:15;2.67;;;1.92;;
35592;SDS011;64447;52.140;5.602;2023-02-28T09:21:41;1.77;;;1.50;;
35592;SDS011;64447;52.140;5.602;2023-02-28T09:24:06;2.03;;;1.63;;
35592;SDS011;64447;52.140;5.602;2023-02-28T09:26:32;2.45;;;1.70;;
35592;SDS011;64447;52.140;5.602;2023-02-28T09:28:59;2.30;;;1.80;;
35592;SDS011;64447;52.140;5.602;2023-02-28T09:31:25;4.07;;;2.17;;
35592;SDS011;64447;52.140;5.602;2023-02-28T09:33:54;2.22;;;2.03;;
35592;SDS011;64447;52.140;5.602;2023-02-28T09:36:24;3.55;;;2.00;;
35592;SDS011;64447;52.140;5.602;2023-02-28T09:38:50;3.30;;;2.00;;
35592;SDS011;64447;52.140;5.602;2023-02-28T09:44:40;4.50;;;2.28;;
35592;SDS011;64447;52.140;5.602;2023-02-28T09:49:51;2.65;;;2.00;;
35592;SDS011;64447;52.140;5.602;2023-02-28T09:52:18;2.53;;;2.00;;
35592;SDS011;64447;52.140;5.602;2023-02-28T09:54:48;2.92;;;1.98;;
35592;SDS011;64447;52.140;5.602;2023-02-28T09:57:32;3.88;;;2.03;;
35592;SDS011;64447;52.140;5.602;2023-02-28T10:05:51;2.75;;;1.88;;
35592;SDS011;64447;52.140;5.602;2023-02-28T10:08:30;2.92;;;1.80;;
35592;SDS011;64447;52.140;5.602;2023-02-28T10:11:01;2.60;;;1.65;;
35592;SDS011;64447;52.140;5.602;2023-02-28T10:13:35;2.65;;;1.85;;
35592;SDS011;64447;52.140;5.602;2023-02-28T10:16:08;3.13;;;1.95;;
35592;SDS011;64447;52.140;5.602;2023-02-28T10:18:43;2.88;;;1.50;;
35592;SDS011;64447;52.140;5.602;2023-02-28T10:21:32;2.47;;;1.90;;
35592;SDS011;64447;52.140;5.602;2023-02-28T10:24:09;2.33;;;1.88;;
35592;SDS011;64447;52.140;5.602;2023-02-28T10:27:30;2.55;;;1.88;;
35592;SDS011;64447;52.140;5.602;2023-02-28T10:29:57;2.25;;;1.77;;
35592;SDS011;64447;52.140;5.602;2023-02-28T10:32:32;3.67;;;2.00;;
35592;SDS011;64447;52.140;5.602;2023-02-28T10:35:15;2.40;;;1.60;;
35592;SDS011;64447;52.140;5.602;2023-02-28T10:37:49;3.00;;;1.95;;
35592;SDS011;64447;52.140;5.602;2023-02-28T10:43:40;3.03;;;1.95;;
35592;SDS011;64447;52.140;5.602;2023-02-28T10:51:04;3.55;;;1.80;;
35592;SDS011;64447;52.140;5.602;2023-02-28T10:59:37;3.20;;;1.85;;
35592;SDS011;64447;52.140;5.602;2023-02-28T11:02:07;2.35;;;1.85;;
35592;SDS011;64447;52.140;5.602;2023-02-28T11:04:57;1.80;;;1.70;;
35592;SDS011;64447;52.140;5.602;2023-02-28T11:07:23;3.05;;;1.70;;
35592;SDS011;64447;52.140;5.602;2023-02-28T11:09:51;2.75;;;1.90;;
35592;SDS011;64447;52.140;5.602;2023-02-28T11:14:54;3.25;;;2.00;;
35592;SDS011;64447;52.140;5.602;2023-02-28T11:17:26;3.75;;;2.30;;
35592;SDS011;64447;52.140;5.602;2023-02-28T11:19:55;2.15;;;1.85;;
35592;SDS011;64447;52.140;5.602;2023-02-28T11:22:24;2.58;;;1.70;;
35592;SDS011;64447;52.140;5.602;2023-02-28T11:24:53;3.08;;;2.20;;
35592;SDS011;64447;52.140;5.602;2023-02-28T11:29:59;3.00;;;2.05;;
35592;SDS011;64447;52.140;5.602;2023-02-28T11:32:29;2.55;;;1.75;;
35592;SDS011;64447;52.140;5.602;2023-02-28T11:37:36;2.17;;;1.70;;
35592;SDS011;64447;52.140;5.602;2023-02-28T11:40:05;3.33;;;2.28;;
35592;SDS011;64447;52.140;5.602;2023-02-28T11:42:42;2.10;;;1.60;;
35592;SDS011;64447;52.140;5.602;2023-02-28T11:48:03;1.73;;;1.52;;
35592;SDS011;64447;52.140;5.602;2023-02-28T11:50:41;2.25;;;1.95;;
35592;SDS011;64447;52.140;5.602;2023-02-28T11:53:30;2.85;;;1.90;;
35592;SDS011;64447;52.140;5.602;2023-02-28T11:56:16;2.17;;;1.88;;
35592;SDS011;64447;52.140;5.602;2023-02-28T12:01:36;3.35;;;2.00;;
35592;SDS011;64447;52.140;5.602;2023-02-28T12:04:26;3.97;;;2.10;;
35592;SDS011;64447;52.140;5.602;2023-02-28T12:19:12;5.07;;;1.98;;
35592;SDS011;64447;52.140;5.602;2023-02-28T12:21:53;3.20;;;1.85;;
35592;SDS011;64447;52.140;5.602;2023-02-28T12:24:54;3.05;;;2.28;;
35592;SDS011;64447;52.140;5.602;2023-02-28T12:27:37;5.40;;;2.55;;
35592;SDS011;64447;52.140;5.602;2023-02-28T12:30:14;2.13;;;1.92;;
35592;SDS011;64447;52.140;5.602;2023-02-28T12:32:48;3.08;;;2.20;;
35592;SDS011;64447;52.140;5.602;2023-02-28T12:35:28;4.80;;;2.17;;
35592;SDS011;64447;52.140;5.602;2023-02-28T12:38:04;4.95;;;2.50;;
35592;SDS011;64447;52.140;5.602;2023-02-28T12:40:48;4.35;;;2.00;;
35592;SDS011;64447;52.140;5.602;2023-02-28T12:43:19;4.97;;;2.53;;
35592;SDS011;64447;52.140;5.602;2023-02-28T12:45:51;1.95;;;1.77;;
35592;SDS011;64447;52.140;5.602;2023-02-28T12:48:24;2.88;;;2.45;;
35592;SDS011;64447;52.140;5.602;2023-02-28T12:50:56;2.45;;;1.92;;
35592;SDS011;64447;52.140;5.602;2023-02-28T13:02:09;2.65;;;2.45;;
35592;SDS011;64447;52.140;5.602;2023-02-28T13:04:56;2.03;;;1.90;;
35592;SDS011;64447;52.140;5.602;2023-02-28T13:13:40;2.92;;;2.20;;
35592;SDS011;64447;52.140;5.602;2023-02-28T13:16:10;4.03;;;3.17;;
35592;SDS011;64447;52.140;5.602;2023-02-28T13:21:04;6.32;;;3.10;;
35592;SDS011;64447;52.140;5.602;2023-02-28T13:29:40;3.78;;;2.67;;
35592;SDS011;64447;52.140;5.602;2023-02-28T13:34:35;4.05;;;2.78;;
35592;SDS011;64447;52.140;5.602;2023-02-28T13:47:24;3.08;;;2.78;;
35592;SDS011;64447;52.140;5.602;2023-02-28T13:49:31;2.97;;;2.70;;
35592;SDS011;64447;52.140;5.602;2023-02-28T14:05:25;5.00;;;2.30;;
35592;SDS011;64447;52.140;5.602;2023-02-28T14:07:56;3.60;;;2.85;;
35592;SDS011;64447;52.140;5.602;2023-02-28T14:10:26;3.70;;;2.40;;
35592;SDS011;64447;52.140;5.602;2023-02-28T14:15:57;2.70;;;2.47;;
35592;SDS011;64447;52.140;5.602;2023-02-28T14:20:52;3.63;;;2.30;;
35592;SDS011;64447;52.140;5.602;2023-02-28T14:23:35;3.88;;;2.60;;
35592;SDS011;64447;52.140;5.602;2023-02-28T14:31:18;3.10;;;2.60;;
35592;SDS011;64447;52.140;5.602;2023-02-28T14:36:33;3.15;;;2.50;;
35592;SDS011;64447;52.140;5.602;2023-02-28T14:39:05;3.42;;;2.17;;
35592;SDS011;64447;52.140;5.602;2023-02-28T14:41:40;2.60;;;2.40;;
35592;SDS011;64447;52.140;5.602;2023-02-28T14:44:26;3.75;;;2.42;;
35592;SDS011;64447;52.140;5.602;2023-02-28T14:47:14;3.00;;;2.70;;
35592;SDS011;64447;52.140;5.602;2023-02-28T14:49:44;4.93;;;2.38;;
35592;SDS011;64447;52.140;5.602;2023-02-28T14:52:13;3.63;;;2.47;;
35592;SDS011;64447;52.140;5.602;2023-02-28T14:54:40;2.67;;;2.13;;
35592;SDS011;64447;52.140;5.602;2023-02-28T14:57:06;6.00;;;2.83;;
35592;SDS011;64447;52.140;5.602;2023-02-28T14:59:45;3.97;;;2.42;;
35592;SDS011;64447;52.140;5.602;2023-02-28T15:02:23;4.43;;;2.30;;
35592;SDS011;64447;52.140;5.602;2023-02-28T15:04:57;3.20;;;2.50;;
35592;SDS011;64447;52.140;5.602;2023-02-28T15:07:25;3.38;;;2.55;;
35592;SDS011;64447;52.140;5.602;2023-02-28T15:10:07;5.35;;;2.78;;
35592;SDS011;64447;52.140;5.602;2023-02-28T15:12:40;2.30;;;2.10;;
35592;SDS011;64447;52.140;5.602;2023-02-28T15:15:14;4.88;;;2.70;;
35592;SDS011;64447;52.140;5.602;2023-02-28T15:17:42;4.25;;;3.08;;
35592;SDS011;64447;52.140;5.602;2023-02-28T15:20:13;5.25;;;3.20;;
35592;SDS011;64447;52.140;5.602;2023-02-28T15:22:43;4.47;;;2.20;;
35592;SDS011;64447;52.140;5.602;2023-02-28T15:25:13;2.83;;;2.40;;
35592;SDS011;64447;52.140;5.602;2023-02-28T15:27:45;4.60;;;3.22;;
35592;SDS011;64447;52.140;5.602;2023-02-28T15:30:15;2.90;;;2.60;;
35592;SDS011;64447;52.140;5.602;2023-02-28T15:33:03;4.43;;;2.25;;
35592;SDS011;64447;52.140;5.602;2023-02-28T15:35:50;2.45;;;2.08;;
35592;SDS011;64447;52.140;5.602;2023-02-28T15:38:23;3.85;;;2.80;;
35592;SDS011;64447;52.140;5.602;2023-02-28T15:40:52;5.15;;;3.45;;
35592;SDS011;64447;52.140;5.602;2023-02-28T15:48:18;3.50;;;2.50;;
35592;SDS011;64447;52.140;5.602;2023-02-28T15:50:47;4.05;;;2.30;;
35592;SDS011;64447;52.140;5.602;2023-02-28T15:53:19;3.75;;;2.88;;
35592;SDS011;64447;52.140;5.602;2023-02-28T15:55:57;5.18;;;3.10;;
35592;SDS011;64447;52.140;5.602;2023-02-28T15:58:29;3.67;;;2.50;;
35592;SDS011;64447;52.140;5.602;2023-02-28T16:01:08;3.80;;;2.75;;
35592;SDS011;64447;52.140;5.602;2023-02-28T16:03:50;2.75;;;2.25;;
35592;SDS011;64447;52.140;5.602;2023-02-28T16:06:37;2.28;;;2.00;;
35592;SDS011;64447;52.140;5.602;2023-02-28T16:09:08;3.20;;;2.10;;
35592;SDS011;64447;52.140;5.602;2023-02-28T16:11:40;3.63;;;2.20;;
35592;SDS011;64447;52.140;5.602;2023-02-28T16:14:15;5.88;;;2.97;;
35592;SDS011;64447;52.140;5.602;2023-02-28T16:16:44;3.95;;;2.65;;
35592;SDS011;64447;52.140;5.602;2023-02-28T16:19:11;4.85;;;2.92;;
35592;SDS011;64447;52.140;5.602;2023-02-28T16:21:37;2.92;;;2.63;;
35592;SDS011;64447;52.140;5.602;2023-02-28T16:24:03;2.80;;;2.60;;
35592;SDS011;64447;52.140;5.602;2023-02-28T16:26:28;3.72;;;2.20;;
35592;SDS011;64447;52.140;5.602;2023-02-28T16:28:54;2.42;;;2.10;;
35592;SDS011;64447;52.140;5.602;2023-02-28T16:31:20;3.65;;;2.30;;
35592;SDS011;64447;52.140;5.602;2023-02-28T16:33:45;2.50;;;2.30;;
35592;SDS011;64447;52.140;5.602;2023-02-28T16:36:19;3.10;;;2.78;;
35592;SDS011;64447;52.140;5.602;2023-02-28T16:38:48;5.28;;;2.50;;
35592;SDS011;64447;52.140;5.602;2023-02-28T16:41:47;3.28;;;2.53;;
35592;SDS011;64447;52.140;5.602;2023-02-28T16:44:11;4.65;;;2.85;;
35592;SDS011;64447;52.140;5.602;2023-02-28T16:46:42;3.38;;;2.95;;
35592;SDS011;64447;52.140;5.602;2023-02-28T16:49:10;3.88;;;3.47;;
35592;SDS011;64447;52.140;5.602;2023-02-28T16:51:37;3.40;;;3.10;;
35592;SDS011;64447;52.140;5.602;2023-02-28T16:54:03;3.58;;;2.70;;
35592;SDS011;64447;52.140;5.602;2023-02-28T16:56:28;3.47;;;2.95;;
35592;SDS011;64447;52.140;5.602;2023-02-28T16:58:55;3.17;;;2.60;;
35592;SDS011;64447;52.140;5.602;2023-02-28T17:01:24;4.45;;;2.63;;
35592;SDS011;64447;52.140;5.602;2023-02-28T17:03:52;4.93;;;2.90;;
35592;SDS011;64447;52.140;5.602;2023-02-28T17:06:22;3.33;;;2.80;;
35592;SDS011;64447;52.140;5.602;2023-02-28T17:08:52;4.65;;;2.88;;
35592;SDS011;64447;52.140;5.602;2023-02-28T17:11:18;3.92;;;3.20;;
35592;SDS011;64447;52.140;5.602;2023-02-28T17:13:44;4.68;;;3.35;;
35592;SDS011;64447;52.140;5.602;2023-02-28T17:16:21;5.63;;;2.85;;
35592;SDS011;64447;52.140;5.602;2023-02-28T17:18:56;4.03;;;2.70;;
35592;SDS011;64447;52.140;5.602;2023-02-28T17:21:24;4.28;;;3.22;;
35592;SDS011;64447;52.140;5.602;2023-02-28T17:23:49;4.22;;;3.20;;
35592;SDS011;64447;52.140;5.602;2023-02-28T17:26:16;3.80;;;3.00;;
35592;SDS011;64447;52.140;5.602;2023-02-28T17:28:47;5.03;;;3.45;;
35592;SDS011;64447;52.140;5.602;2023-02-28T17:31:14;5.05;;;3.58;;
35592;SDS011;64447;52.140;5.602;2023-02-28T17:33:40;3.53;;;3.00;;
35592;SDS011;64447;52.140;5.602;2023-02-28T17:36:06;5.38;;;3.63;;
35592;SDS011;64447;52.140;5.602;2023-02-28T17:38:42;4.85;;;3.65;;
35592;SDS011;64447;52.140;5.602;2023-02-28T17:41:11;3.63;;;3.30;;
35592;SDS011;64447;52.140;5.602;2023-02-28T17:43:37;5.95;;;3.95;;
35592;SDS011;64447;52.140;5.602;2023-02-28T17:46:03;7.57;;;3.55;;
35592;SDS011;64447;52.140;5.602;2023-02-28T17:48:32;6.47;;;3.83;;
35592;SDS011;64447;52.140;5.602;2023-02-28T17:50:58;7.70;;;3.60;;
35592;SDS011;64447;52.140;5.602;2023-02-28T17:53:24;4.20;;;3.75;;
35592;SDS011;64447;52.140;5.602;2023-02-28T17:55:49;5.05;;;3.42;;
35592;SDS011;64447;52.140;5.602;2023-02-28T17:58:15;6.32;;;3.50;;
35592;SDS011;64447;52.140;5.602;2023-02-28T18:00:41;6.03;;;3.40;;
35592;SDS011;64447;52.140;5.602;2023-02-28T18:03:07;16.27;;;4.05;;
35592;SDS011;64447;52.140;5.602;2023-02-28T18:05:34;4.68;;;3.75;;
35592;SDS011;64447;52.140;5.602;2023-02-28T18:08:01;6.57;;;3.63;;
35592;SDS011;64447;52.140;5.602;2023-02-28T18:10:27;5.32;;;3.67;;
35592;SDS011;64447;52.140;5.602;2023-02-28T18:12:52;4.25;;;3.50;;
35592;SDS011;64447;52.140;5.602;2023-02-28T18:15:21;4.13;;;3.47;;
35592;SDS011;64447;52.140;5.602;2023-02-28T18:17:47;7.43;;;4.10;;
35592;SDS011;64447;52.140;5.602;2023-02-28T18:20:14;5.95;;;4.13;;
35592;SDS011;64447;52.140;5.602;2023-02-28T18:22:40;5.55;;;3.53;;